Maxdale, Texas
Current Conditions -  °F | °C
As of 9:35 PM on Wednesday 22 Oct 2014 (Local Time) from KILE Reporting Station
Clear Clear  
Wind Chill: 72°   Ceiling: Unl
Heat Index: 72°   Visibility: 10mi
Dew Point: 55°   Wind: 6mph
Humidity: 57%   Direction: 110°ESE
Pressure: 30.11"   Gusts: NA
Location:  31.0727°N, 97.7358°W
Report Text: KILE 230235Z AUTO 11005KT 10SM CLR 22/13 A3011 RMK AO1
Loading
Personal Weather Stations






























Interactive Weather Map
Tropical Storm Tracking
New forecast layout! Learn more

10-Day Weather Forecast

Advertisements
Track Severe Weather on mobile